TimeCDT,TemperatureF,Dew PointF,Humidity,Sea Level PressureIn,VisibilityMPH,Wind Direction,Wind SpeedMPH,Gust SpeedMPH,PrecipitationIn,Events,Conditions,WindDirDegrees,DateUTC
12:53 AM,45.0,41.0,86,30.13,10.0,NNW,9.2,-,N/A,,Overcast,330,2013-04-05 05:53:00
1:14 AM,46.4,39.2,76,30.13,10.0,NNW,6.9,-,N/A,,Overcast,330,2013-04-05 06:14:00
1:53 AM,45.0,41.0,86,30.13,10.0,NW,6.9,-,N/A,,Overcast,320,2013-04-05 06:53:00
2:11 AM,44.6,41.0,87,30.14,10.0,NW,8.1,-,N/A,,Overcast,320,2013-04-05 07:11:00
2:53 AM,45.0,41.0,86,30.13,10.0,NW,8.1,-,N/A,,Overcast,320,2013-04-05 07:53:00
3:53 AM,43.0,39.9,89,30.13,10.0,NW,6.9,-,N/A,,Clear,320,2013-04-05 08:53:00
4:53 AM,42.1,39.9,92,30.13,10.0,NNW,5.8,-,N/A,,Clear,330,2013-04-05 09:53:00
5:53 AM,41.0,39.0,93,30.14,10.0,NNW,4.6,-,N/A,,Clear,340,2013-04-05 10:53:00
6:53 AM,39.9,39.0,97,30.16,8.0,Calm,Calm,-,N/A,,Clear,0,2013-04-05 11:53:00
7:53 AM,43.0,41.0,93,30.19,8.0,NNW,3.5,-,N/A,,Clear,330,2013-04-05 12:53:00
8:53 AM,48.0,42.1,80,30.22,10.0,NNW,6.9,-,N/A,,Clear,340,2013-04-05 13:53:00
9:53 AM,54.0,43.0,66,30.22,10.0,Variable,5.8,-,N/A,,Clear,0,2013-04-05 14:53:00
10:53 AM,57.0,43.0,59,30.23,10.0,NNW,3.5,-,N/A,,Clear,340,2013-04-05 15:53:00
11:53 AM,61.0,39.9,46,30.22,10.0,East,5.8,-,N/A,,Clear,90,2013-04-05 16:53:00
12:53 PM,64.0,39.9,41,30.20,10.0,NE,6.9,-,N/A,,Clear,50,2013-04-05 17:53:00
1:53 PM,64.9,39.0,39,30.18,10.0,Calm,Calm,-,N/A,,Clear,0,2013-04-05 18:53:00
2:53 PM,66.0,41.0,40,30.15,10.0,Variable,5.8,-,N/A,,Clear,0,2013-04-05 19:53:00
3:53 PM,66.9,41.0,39,30.13,10.0,Calm,Calm,-,N/A,,Clear,0,2013-04-05 20:53:00
4:53 PM,68.0,41.0,37,30.11,10.0,Calm,Calm,-,N/A,,Clear,0,2013-04-05 21:53:00
5:53 PM,68.0,42.1,39,30.11,10.0,ENE,3.5,-,N/A,,Clear,60,2013-04-05 22:53:00
6:53 PM,64.0,42.1,45,30.11,10.0,East,3.5,-,N/A,,Clear,90,2013-04-05 23:53:00
7:53 PM,57.0,46.9,69,30.12,10.0,Calm,Calm,-,N/A,,Clear,0,2013-04-06 00:53:00
8:53 PM,53.1,45.0,74,30.13,10.0,Calm,Calm,-,N/A,,Clear,0,2013-04-06 01:53:00
9:53 PM,50.0,44.1,80,30.15,10.0,Calm,Calm,-,N/A,,Clear,0,2013-04-06 02:53:00
10:53 PM,48.0,44.1,86,30.14,10.0,Calm,Calm,-,N/A,,Clear,0,2013-04-06 03:53:00
11:53 PM,46.9,43.0,86,30.13,10.0,ESE,4.6,-,N/A,,Clear,110,2013-04-06 04:53:00